createdAt,value
2019-02-26T01:03:59.987Z,96953.12
2019-02-26T01:09:03.644Z,96942.19
2019-02-26T01:14:02.741Z,96931.09
2019-02-26T01:19:04.081Z,96925.98
2019-02-26T01:24:06.468Z,96917.47
2019-02-26T01:29:06.842Z,96919.56
2019-02-26T02:31:10.737Z,96894.27
2019-02-26T02:36:14.757Z,96894.94
2019-02-26T02:41:13.413Z,96891.91
2019-02-26T02:46:14.738Z,96894.39
2019-02-26T02:51:16.828Z,96899.51
2019-02-26T02:56:18.880Z,96892.39
2019-02-26T04:04:43.014Z,96842.23
2019-02-26T04:09:46.658Z,96838.25
2019-02-26T04:14:45.724Z,96848.52
2019-02-26T04:19:47.116Z,96845.35
2019-02-26T04:24:50.028Z,96833.62
2019-02-26T04:29:49.834Z,96828.09
2019-02-26T05:31:52.386Z,96796.85
2019-02-26T05:36:53.673Z,96803.97
2019-02-26T05:41:58.937Z,96805.18
2019-02-26T05:46:58.869Z,96814.66
2019-02-26T05:52:01.463Z,96798.67
2019-02-26T05:57:01.851Z,96810.14
2019-02-26T07:05:24.610Z,96839.20
2019-02-26T07:10:26.730Z,96836.72
2019-02-26T07:15:28.733Z,96839.05
2019-02-26T07:20:34.153Z,96837.59
2019-02-26T07:25:31.289Z,96848.05
2019-02-26T08:33:54.128Z,96869.73
2019-02-26T08:38:57.089Z,96867.32
2019-02-26T08:43:58.879Z,96863.10
2019-02-26T08:49:07.881Z,96864.10
2019-02-26T08:54:00.274Z,96866.99
2019-02-26T08:59:03.605Z,96858.03
2019-02-26T10:01:08.703Z,96824.39
2019-02-26T10:06:08.319Z,96826.22
2019-02-26T10:11:09.605Z,96823.78
2019-02-26T10:16:12.280Z,96829.15
2019-02-26T10:21:14.800Z,96833.20
2019-02-26T10:26:14.893Z,96830.78
2019-02-26T11:34:38.840Z,96793.91
2019-02-26T11:39:40.916Z,96790.23
2019-02-26T11:44:43.130Z,96787.66
2019-02-26T11:49:46.645Z,96780.38
2019-02-26T11:54:45.839Z,96777.28
2019-02-26T11:59:47.913Z,96768.50
2019-02-26T13:01:51.961Z,96700.85
2019-02-26T13:06:52.198Z,96695.08
2019-02-26T13:12:01.226Z,96690.89
2019-02-26T13:16:57.073Z,96682.06
2019-02-26T13:22:05.092Z,96673.84
2019-02-26T13:26:59.569Z,96679.56
2019-02-26T14:35:23.088Z,96629.83
2019-02-26T14:40:24.378Z,96636.59
2019-02-26T14:45:25.657Z,96622.25
2019-02-26T14:50:26.915Z,96606.60
2019-02-26T14:55:30.125Z,96599.31
2019-02-26T15:00:30.452Z,96601.63
2019-02-26T16:02:34.298Z,96597.11
2019-02-26T16:07:35.662Z,96593.04
2019-02-26T16:12:37.522Z,96596.62
2019-02-26T16:17:39.549Z,96597.64
2019-02-26T16:22:40.844Z,96593.94
2019-02-26T16:27:42.128Z,96591.39
2019-02-26T16:32:43.460Z,96594.34
2019-02-26T16:37:45.539Z,96591.80
2019-02-26T16:42:46.829Z,96594.09
2019-02-26T16:47:49.417Z,96593.81
2019-02-26T16:52:50.159Z,96596.85
2019-02-26T16:57:51.548Z,96593.01
2019-02-26T17:02:52.876Z,96590.73
2019-02-26T17:08:11.401Z,96586.92
2019-02-26T17:13:13.788Z,96578.94
2019-02-26T17:18:16.201Z,96586.28
2019-02-26T17:23:16.465Z,96593.73
2019-02-26T17:28:19.039Z,96599.96
2019-02-26T17:33:20.406Z,96583.69
2019-02-26T17:38:21.849Z,96590.62
2019-02-26T17:43:25.158Z,96601.41
2019-02-26T17:48:24.534Z,96594.63
2019-02-26T17:53:27.761Z,96601.14
2019-02-26T17:58:27.307Z,96594.36
2019-02-26T18:03:28.849Z,96605.49
2019-02-26T18:08:33.471Z,96601.94
2019-02-26T18:13:34.991Z,96595.17
2019-02-26T18:18:36.725Z,96589.77
2019-02-26T18:23:38.489Z,96591.99
2019-02-26T18:28:40.700Z,96586.27
2019-02-26T18:33:42.097Z,96586.80
2019-02-26T18:38:43.523Z,96592.20
2019-02-26T18:43:47.433Z,96589.84
2019-02-26T18:48:48.673Z,96602.73
2019-02-26T18:53:48.621Z,96605.41
2019-02-26T18:58:51.850Z,96602.73
2019-02-26T19:03:52.351Z,96601.87
2019-02-26T19:08:53.714Z,96599.64
2019-02-26T19:13:55.774Z,96603.23
2019-02-26T19:18:57.929Z,96594.69
2019-02-26T19:23:59.404Z,96609.27
2019-02-26T19:29:00.701Z,96598.77
2019-02-26T19:34:02.166Z,96597.09
2019-02-26T19:39:03.585Z,96598.23
2019-02-26T19:44:04.940Z,96602.42
2019-02-26T19:49:06.464Z,96604.40
2019-02-26T19:54:07.848Z,96603.44
2019-02-26T19:59:13.449Z,96604.37
2019-02-26T20:04:11.989Z,96592.52
2019-02-26T20:09:13.376Z,96593.39
2019-02-26T20:14:21.249Z,96593.44
2019-02-26T20:19:16.859Z,96592.35
2019-02-26T20:24:18.559Z,96583.83
2019-02-26T20:29:20.013Z,96593.31
2019-02-26T20:34:22.114Z,96586.63
2019-02-26T20:39:23.699Z,96580.45
2019-02-26T20:44:25.888Z,96588.43
2019-02-26T20:49:27.214Z,96581.48
2019-02-26T20:54:28.721Z,96572.91
2019-02-26T20:59:30.045Z,96573.86
2019-02-26T21:04:31.483Z,96574.73
2019-02-26T21:09:33.155Z,96561.71
2019-02-26T21:14:41.444Z,96554.80
2019-02-26T21:19:42.845Z,96540.21
2019-02-26T21:24:44.188Z,96526.49
2019-02-26T21:29:46.235Z,96522.37
2019-02-26T21:34:49.479Z,96533.23
2019-02-26T21:40:07.382Z,96530.23
2019-02-26T21:45:29.226Z,96532.48
2019-02-26T21:50:36.161Z,96529.29
2019-02-26T21:55:44.316Z,96544.27
2019-02-26T22:00:49.523Z,96547.91
2019-02-26T22:06:05.034Z,96556.96
2019-02-26T22:11:02.518Z,96560.97
2019-02-26T22:16:06.378Z,96562.75
2019-02-26T22:21:21.097Z,96560.02
2019-02-26T22:26:27.800Z,96568.36
2019-02-26T22:31:34.529Z,96567.35
2019-02-26T22:36:37.890Z,96562.09
2019-02-26T22:41:40.839Z,96566.11
2019-02-26T22:46:46.187Z,96563.31
2019-02-26T22:51:51.037Z,96574.99
2019-02-26T22:56:56.654Z,96570.81
2019-02-26T23:33:35.742Z,96573.31
2019-02-26T23:38:37.034Z,96566.68
2019-02-26T23:43:38.353Z,96553.59
2019-02-26T23:48:40.899Z,96560.75
2019-02-26T23:53:41.204Z,96550.98
2019-02-26T23:58:42.516Z,96554.63
